sensor_id;sensor_type;location;lat;lon;timestamp;temperature;humidity
23156;DHT22;11746;50.876;4.246;2023-09-30T00:01:48;14.80;99.90
23156;DHT22;11746;50.876;4.246;2023-09-30T00:04:17;14.80;99.90
23156;DHT22;11746;50.876;4.246;2023-09-30T00:06:43;14.80;99.90
23156;DHT22;11746;50.876;4.246;2023-09-30T00:09:08;14.80;99.90
23156;DHT22;11746;50.876;4.246;2023-09-30T00:11:34;14.80;99.90
23156;DHT22;11746;50.876;4.246;2023-09-30T00:14:02;14.80;99.90
23156;DHT22;11746;50.876;4.246;2023-09-30T00:16:28;14.80;99.90
23156;DHT22;11746;50.876;4.246;2023-09-30T00:18:56;14.80;99.90
23156;DHT22;11746;50.876;4.246;2023-09-30T00:21:26;14.80;99.90
23156;DHT22;11746;50.876;4.246;2023-09-30T00:23:54;14.70;99.90
23156;DHT22;11746;50.876;4.246;2023-09-30T00:26:22;14.70;99.90
23156;DHT22;11746;50.876;4.246;2023-09-30T00:28:52;14.70;99.90
23156;DHT22;11746;50.876;4.246;2023-09-30T00:31:18;14.80;99.90
23156;DHT22;11746;50.876;4.246;2023-09-30T00:33:46;14.80;99.90
23156;DHT22;11746;50.876;4.246;2023-09-30T00:36:13;14.70;99.90
23156;DHT22;11746;50.876;4.246;2023-09-30T00:38:39;14.70;99.90
23156;DHT22;11746;50.876;4.246;2023-09-30T00:41:06;14.80;99.90
23156;DHT22;11746;50.876;4.246;2023-09-30T00:43:34;14.80;99.90
23156;DHT22;11746;50.876;4.246;2023-09-30T00:46:04;14.80;99.90
23156;DHT22;11746;50.876;4.246;2023-09-30T00:48:33;14.90;99.90
23156;DHT22;11746;50.876;4.246;2023-09-30T00:51:02;14.80;99.90
23156;DHT22;11746;50.876;4.246;2023-09-30T00:53:29;14.80;99.90
23156;DHT22;11746;50.876;4.246;2023-09-30T00:55:57;14.80;99.90
23156;DHT22;11746;50.876;4.246;2023-09-30T00:58:25;14.70;99.90
23156;DHT22;11746;50.876;4.246;2023-09-30T01:00:55;14.60;99.90
23156;DHT22;11746;50.876;4.246;2023-09-30T01:03:22;14.70;99.90
23156;DHT22;11746;50.876;4.246;2023-09-30T01:05:53;14.70;99.90
23156;DHT22;11746;50.876;4.246;2023-09-30T01:08:22;14.70;99.90
23156;DHT22;11746;50.876;4.246;2023-09-30T01:10:48;14.80;99.90
23156;DHT22;11746;50.876;4.246;2023-09-30T01:13:14;14.90;99.90
23156;DHT22;11746;50.876;4.246;2023-09-30T01:15:39;14.90;99.90
23156;DHT22;11746;50.876;4.246;2023-09-30T01:18:07;15.00;99.90
23156;DHT22;11746;50.876;4.246;2023-09-30T01:20:35;15.00;99.90
23156;DHT22;11746;50.876;4.246;2023-09-30T01:23:02;14.90;99.90
23156;DHT22;11746;50.876;4.246;2023-09-30T01:25:30;14.90;99.90
23156;DHT22;11746;50.876;4.246;2023-09-30T01:27:56;14.90;99.90
23156;DHT22;11746;50.876;4.246;2023-09-30T01:30:25;14.80;99.90
23156;DHT22;11746;50.876;4.246;2023-09-30T01:32:52;14.80;99.90
23156;DHT22;11746;50.876;4.246;2023-09-30T01:35:19;14.70;99.90
23156;DHT22;11746;50.876;4.246;2023-09-30T01:37:44;14.60;99.90
23156;DHT22;11746;50.876;4.246;2023-09-30T01:40:12;14.50;99.90
23156;DHT22;11746;50.876;4.246;2023-09-30T01:42:38;14.40;99.90
23156;DHT22;11746;50.876;4.246;2023-09-30T01:45:04;14.40;99.90
23156;DHT22;11746;50.876;4.246;2023-09-30T01:47:30;14.30;99.90
23156;DHT22;11746;50.876;4.246;2023-09-30T01:49:55;14.30;99.90
23156;DHT22;11746;50.876;4.246;2023-09-30T01:52:23;14.20;99.90
23156;DHT22;11746;50.876;4.246;2023-09-30T01:54:51;14.10;99.90
23156;DHT22;11746;50.876;4.246;2023-09-30T01:57:17;14.20;99.90
23156;DHT22;11746;50.876;4.246;2023-09-30T01:59:42;14.20;99.90
23156;DHT22;11746;50.876;4.246;2023-09-30T02:02:08;14.30;99.90
23156;DHT22;11746;50.876;4.246;2023-09-30T02:04:34;14.40;99.90
23156;DHT22;11746;50.876;4.246;2023-09-30T02:07:02;14.40;99.90
23156;DHT22;11746;50.876;4.246;2023-09-30T02:09:30;14.30;99.90
23156;DHT22;11746;50.876;4.246;2023-09-30T02:11:55;14.30;99.90
23156;DHT22;11746;50.876;4.246;2023-09-30T02:14:24;14.20;99.90
23156;DHT22;11746;50.876;4.246;2023-09-30T02:16:50;14.30;99.90
23156;DHT22;11746;50.876;4.246;2023-09-30T02:19:16;14.20;99.90
23156;DHT22;11746;50.876;4.246;2023-09-30T02:21:42;14.20;99.90
23156;DHT22;11746;50.876;4.246;2023-09-30T02:24:07;14.20;99.90
23156;DHT22;11746;50.876;4.246;2023-09-30T02:26:33;14.10;99.90
23156;DHT22;11746;50.876;4.246;2023-09-30T02:28:59;14.00;99.90
23156;DHT22;11746;50.876;4.246;2023-09-30T02:31:29;14.00;99.90
23156;DHT22;11746;50.876;4.246;2023-09-30T02:33:55;14.00;99.90
23156;DHT22;11746;50.876;4.246;2023-09-30T02:36:22;14.00;99.90
23156;DHT22;11746;50.876;4.246;2023-09-30T02:38:48;13.90;99.90
23156;DHT22;11746;50.876;4.246;2023-09-30T02:41:15;14.00;99.90
23156;DHT22;11746;50.876;4.246;2023-09-30T02:43:44;14.00;99.90
23156;DHT22;11746;50.876;4.246;2023-09-30T02:46:09;14.00;99.90
23156;DHT22;11746;50.876;4.246;2023-09-30T02:48:35;14.00;99.90
23156;DHT22;11746;50.876;4.246;2023-09-30T02:51:00;13.90;99.90
23156;DHT22;11746;50.876;4.246;2023-09-30T02:53:26;14.00;99.90
23156;DHT22;11746;50.876;4.246;2023-09-30T02:55:53;13.90;99.90
23156;DHT22;11746;50.876;4.246;2023-09-30T02:58:23;13.80;99.90
23156;DHT22;11746;50.876;4.246;2023-09-30T03:00:51;13.80;99.90
23156;DHT22;11746;50.876;4.246;2023-09-30T03:03:17;13.80;99.90
23156;DHT22;11746;50.876;4.246;2023-09-30T03:05:47;13.80;99.90
23156;DHT22;11746;50.876;4.246;2023-09-30T03:08:14;13.90;99.90
23156;DHT22;11746;50.876;4.246;2023-09-30T03:10:42;13.80;99.90
23156;DHT22;11746;50.876;4.246;2023-09-30T03:13:08;13.80;99.90
23156;DHT22;11746;50.876;4.246;2023-09-30T03:15:35;13.80;99.90
23156;DHT22;11746;50.876;4.246;2023-09-30T03:18:00;13.80;99.90
23156;DHT22;11746;50.876;4.246;2023-09-30T03:20:26;13.70;99.90
23156;DHT22;11746;50.876;4.246;2023-09-30T03:22:56;13.80;99.90
23156;DHT22;11746;50.876;4.246;2023-09-30T03:25:24;13.80;99.90
23156;DHT22;11746;50.876;4.246;2023-09-30T03:27:52;13.90;99.90
23156;DHT22;11746;50.876;4.246;2023-09-30T03:30:18;13.80;99.90
23156;DHT22;11746;50.876;4.246;2023-09-30T03:32:47;13.70;99.90
23156;DHT22;11746;50.876;4.246;2023-09-30T03:35:13;13.70;99.90
23156;DHT22;11746;50.876;4.246;2023-09-30T03:37:46;13.60;99.90
23156;DHT22;11746;50.876;4.246;2023-09-30T03:40:12;13.60;99.90
23156;DHT22;11746;50.876;4.246;2023-09-30T03:42:43;13.50;99.90
23156;DHT22;11746;50.876;4.246;2023-09-30T03:45:10;13.40;99.90
23156;DHT22;11746;50.876;4.246;2023-09-30T03:47:37;13.40;99.90
23156;DHT22;11746;50.876;4.246;2023-09-30T03:50:03;13.50;99.90
23156;DHT22;11746;50.876;4.246;2023-09-30T03:52:30;13.40;99.90
23156;DHT22;11746;50.876;4.246;2023-09-30T03:55:01;13.50;99.90
23156;DHT22;11746;50.876;4.246;2023-09-30T03:57:34;13.50;99.90
23156;DHT22;11746;50.876;4.246;2023-09-30T04:00:00;13.50;99.90
23156;DHT22;11746;50.876;4.246;2023-09-30T04:02:26;13.60;99.90
23156;DHT22;11746;50.876;4.246;2023-09-30T04:04:54;13.60;99.90
23156;DHT22;11746;50.876;4.246;2023-09-30T04:07:23;13.50;99.90
23156;DHT22;11746;50.876;4.246;2023-09-30T04:09:54;13.60;99.90
23156;DHT22;11746;50.876;4.246;2023-09-30T04:12:23;13.40;99.90
23156;DHT22;11746;50.876;4.246;2023-09-30T04:14:50;13.40;99.90
23156;DHT22;11746;50.876;4.246;2023-09-30T04:17:15;13.40;99.90
23156;DHT22;11746;50.876;4.246;2023-09-30T04:19:41;13.40;99.90
23156;DHT22;11746;50.876;4.246;2023-09-30T04:22:06;13.50;99.90
23156;DHT22;11746;50.876;4.246;2023-09-30T04:24:37;13.50;99.90
23156;DHT22;11746;50.876;4.246;2023-09-30T04:27:05;13.50;99.90
23156;DHT22;11746;50.876;4.246;2023-09-30T04:29:35;13.40;99.90
23156;DHT22;11746;50.876;4.246;2023-09-30T04:32:01;13.50;99.90
23156;DHT22;11746;50.876;4.246;2023-09-30T04:34:29;13.50;99.90
23156;DHT22;11746;50.876;4.246;2023-09-30T04:36:57;13.50;99.90
23156;DHT22;11746;50.876;4.246;2023-09-30T04:39:22;13.40;99.90
23156;DHT22;11746;50.876;4.246;2023-09-30T04:41:48;13.30;99.90
23156;DHT22;11746;50.876;4.246;2023-09-30T04:44:16;13.30;99.90
23156;DHT22;11746;50.876;4.246;2023-09-30T04:46:44;13.40;99.90
23156;DHT22;11746;50.876;4.246;2023-09-30T04:49:14;13.30;99.90
23156;DHT22;11746;50.876;4.246;2023-09-30T04:51:40;13.40;99.90
23156;DHT22;11746;50.876;4.246;2023-09-30T04:54:06;13.30;99.90
23156;DHT22;11746;50.876;4.246;2023-09-30T04:56:37;13.30;99.90
23156;DHT22;11746;50.876;4.246;2023-09-30T04:59:04;13.30;99.90
23156;DHT22;11746;50.876;4.246;2023-09-30T05:01:32;13.30;99.90
23156;DHT22;11746;50.876;4.246;2023-09-30T05:03:57;13.20;99.90
23156;DHT22;11746;50.876;4.246;2023-09-30T05:06:23;13.10;99.90
23156;DHT22;11746;50.876;4.246;2023-09-30T05:08:51;13.00;99.90
23156;DHT22;11746;50.876;4.246;2023-09-30T05:11:16;13.10;99.90
23156;DHT22;11746;50.876;4.246;2023-09-30T05:13:42;13.20;99.90
23156;DHT22;11746;50.876;4.246;2023-09-30T05:16:07;13.10;99.90
23156;DHT22;11746;50.876;4.246;2023-09-30T05:18:33;13.10;99.90
23156;DHT22;11746;50.876;4.246;2023-09-30T05:20:59;13.10;99.90
23156;DHT22;11746;50.876;4.246;2023-09-30T05:23:26;13.10;99.90
23156;DHT22;11746;50.876;4.246;2023-09-30T05:25:51;13.10;99.90
23156;DHT22;11746;50.876;4.246;2023-09-30T05:28:19;13.10;99.90
23156;DHT22;11746;50.876;4.246;2023-09-30T05:30:47;13.10;99.90
23156;DHT22;11746;50.876;4.246;2023-09-30T05:33:15;13.20;99.90
23156;DHT22;11746;50.876;4.246;2023-09-30T05:35:42;13.10;99.90
23156;DHT22;11746;50.876;4.246;2023-09-30T05:38:08;13.10;99.90
23156;DHT22;11746;50.876;4.246;2023-09-30T05:40:36;13.10;99.90
23156;DHT22;11746;50.876;4.246;2023-09-30T05:43:04;13.10;99.90
23156;DHT22;11746;50.876;4.246;2023-09-30T05:45:32;13.10;99.90
23156;DHT22;11746;50.876;4.246;2023-09-30T05:48:05;13.10;99.90
23156;DHT22;11746;50.876;4.246;2023-09-30T05:50:34;13.10;99.90
23156;DHT22;11746;50.876;4.246;2023-09-30T05:53:02;13.20;99.90
23156;DHT22;11746;50.876;4.246;2023-09-30T05:55:30;13.20;99.90
23156;DHT22;11746;50.876;4.246;2023-09-30T05:57:55;13.20;99.90
23156;DHT22;11746;50.876;4.246;2023-09-30T06:00:22;13.20;99.90
23156;DHT22;11746;50.876;4.246;2023-09-30T06:02:57;13.30;99.90
23156;DHT22;11746;50.876;4.246;2023-09-30T06:05:26;13.30;99.90
23156;DHT22;11746;50.876;4.246;2023-09-30T06:07:52;13.20;99.90
23156;DHT22;11746;50.876;4.246;2023-09-30T06:10:19;13.30;99.90
23156;DHT22;11746;50.876;4.246;2023-09-30T06:12:47;13.40;99.90
23156;DHT22;11746;50.876;4.246;2023-09-30T06:15:16;13.40;99.90
23156;DHT22;11746;50.876;4.246;2023-09-30T06:17:48;13.40;99.90
23156;DHT22;11746;50.876;4.246;2023-09-30T06:20:14;13.50;99.90
23156;DHT22;11746;50.876;4.246;2023-09-30T06:22:48;13.50;99.90
23156;DHT22;11746;50.876;4.246;2023-09-30T06:25:22;13.70;99.90
23156;DHT22;11746;50.876;4.246;2023-09-30T06:27:49;13.60;99.90
23156;DHT22;11746;50.876;4.246;2023-09-30T06:30:18;13.50;99.90
23156;DHT22;11746;50.876;4.246;2023-09-30T06:32:47;13.40;99.90
23156;DHT22;11746;50.876;4.246;2023-09-30T06:35:13;13.50;99.90
23156;DHT22;11746;50.876;4.246;2023-09-30T06:37:40;13.40;99.90
23156;DHT22;11746;50.876;4.246;2023-09-30T06:40:10;13.50;99.90
23156;DHT22;11746;50.876;4.246;2023-09-30T06:42:38;13.60;99.90
23156;DHT22;11746;50.876;4.246;2023-09-30T06:45:08;13.50;99.90
23156;DHT22;11746;50.876;4.246;2023-09-30T06:47:36;13.50;99.90
23156;DHT22;11746;50.876;4.246;2023-09-30T06:50:07;13.50;99.90
23156;DHT22;11746;50.876;4.246;2023-09-30T06:52:35;13.50;99.90
23156;DHT22;11746;50.876;4.246;2023-09-30T06:55:06;13.60;99.90
23156;DHT22;11746;50.876;4.246;2023-09-30T06:57:37;13.60;99.90
23156;DHT22;11746;50.876;4.246;2023-09-30T07:00:10;13.60;99.90
23156;DHT22;11746;50.876;4.246;2023-09-30T07:02:38;13.50;99.90
23156;DHT22;11746;50.876;4.246;2023-09-30T07:05:11;13.50;99.90
23156;DHT22;11746;50.876;4.246;2023-09-30T07:07:41;13.60;99.90
23156;DHT22;11746;50.876;4.246;2023-09-30T07:10:09;13.40;99.90
23156;DHT22;11746;50.876;4.246;2023-09-30T07:12:35;13.60;99.90
23156;DHT22;11746;50.876;4.246;2023-09-30T07:15:04;13.60;99.90
23156;DHT22;11746;50.876;4.246;2023-09-30T07:17:31;13.60;99.90
23156;DHT22;11746;50.876;4.246;2023-09-30T07:19:57;13.60;99.90
23156;DHT22;11746;50.876;4.246;2023-09-30T07:22:22;13.60;99.90
23156;DHT22;11746;50.876;4.246;2023-09-30T07:24:48;13.50;99.90
23156;DHT22;11746;50.876;4.246;2023-09-30T07:27:19;13.60;99.90
23156;DHT22;11746;50.876;4.246;2023-09-30T07:29:44;13.70;99.90
23156;DHT22;11746;50.876;4.246;2023-09-30T07:32:10;13.80;99.90
23156;DHT22;11746;50.876;4.246;2023-09-30T07:34:35;13.70;99.90
23156;DHT22;11746;50.876;4.246;2023-09-30T07:37:03;13.70;99.90
23156;DHT22;11746;50.876;4.246;2023-09-30T07:39:30;13.60;99.90
23156;DHT22;11746;50.876;4.246;2023-09-30T07:41:58;13.60;99.90
23156;DHT22;11746;50.876;4.246;2023-09-30T07:44:26;13.70;99.90
23156;DHT22;11746;50.876;4.246;2023-09-30T07:46:52;13.80;99.90
23156;DHT22;11746;50.876;4.246;2023-09-30T07:49:18;13.80;99.90
23156;DHT22;11746;50.876;4.246;2023-09-30T07:51:47;13.80;99.90
23156;DHT22;11746;50.876;4.246;2023-09-30T07:54:12;13.80;99.90
23156;DHT22;11746;50.876;4.246;2023-09-30T07:56:38;13.80;99.90
23156;DHT22;11746;50.876;4.246;2023-09-30T07:59:04;13.80;99.90
23156;DHT22;11746;50.876;4.246;2023-09-30T08:01:31;13.90;99.90
23156;DHT22;11746;50.876;4.246;2023-09-30T08:03:56;14.00;99.90
23156;DHT22;11746;50.876;4.246;2023-09-30T08:06:22;14.10;99.90
23156;DHT22;11746;50.876;4.246;2023-09-30T08:08:51;14.10;99.90
23156;DHT22;11746;50.876;4.246;2023-09-30T08:11:18;14.20;99.90
23156;DHT22;11746;50.876;4.246;2023-09-30T08:13:44;14.40;99.90
23156;DHT22;11746;50.876;4.246;2023-09-30T08:16:13;14.50;99.90
23156;DHT22;11746;50.876;4.246;2023-09-30T08:18:38;14.50;99.90
23156;DHT22;11746;50.876;4.246;2023-09-30T08:21:04;14.60;99.90
23156;DHT22;11746;50.876;4.246;2023-09-30T08:23:32;14.70;99.90
23156;DHT22;11746;50.876;4.246;2023-09-30T08:25:58;14.80;99.90
23156;DHT22;11746;50.876;4.246;2023-09-30T08:28:24;15.00;99.90
23156;DHT22;11746;50.876;4.246;2023-09-30T08:30:50;15.10;99.90
23156;DHT22;11746;50.876;4.246;2023-09-30T08:33:25;15.10;99.90
23156;DHT22;11746;50.876;4.246;2023-09-30T08:35:53;15.20;99.90
23156;DHT22;11746;50.876;4.246;2023-09-30T08:38:18;15.20;99.90
23156;DHT22;11746;50.876;4.246;2023-09-30T08:40:44;15.20;99.90
23156;DHT22;11746;50.876;4.246;2023-09-30T08:43:12;15.20;99.90
23156;DHT22;11746;50.876;4.246;2023-09-30T08:45:44;15.40;99.90
23156;DHT22;11746;50.876;4.246;2023-09-30T08:48:12;15.50;99.90
23156;DHT22;11746;50.876;4.246;2023-09-30T08:50:39;15.70;99.90
23156;DHT22;11746;50.876;4.246;2023-09-30T08:53:07;15.70;99.90
23156;DHT22;11746;50.876;4.246;2023-09-30T08:55:37;15.60;99.90
23156;DHT22;11746;50.876;4.246;2023-09-30T08:58:03;15.60;99.90
23156;DHT22;11746;50.876;4.246;2023-09-30T09:00:29;15.50;99.90
23156;DHT22;11746;50.876;4.246;2023-09-30T09:02:55;15.70;99.90
23156;DHT22;11746;50.876;4.246;2023-09-30T09:05:20;15.80;99.90
23156;DHT22;11746;50.876;4.246;2023-09-30T09:07:48;15.90;99.90
23156;DHT22;11746;50.876;4.246;2023-09-30T09:10:18;15.90;99.90
23156;DHT22;11746;50.876;4.246;2023-09-30T09:12:58;15.90;99.90
23156;DHT22;11746;50.876;4.246;2023-09-30T09:15:25;16.00;99.90
23156;DHT22;11746;50.876;4.246;2023-09-30T09:17:51;16.20;99.90
23156;DHT22;11746;50.876;4.246;2023-09-30T09:20:21;16.30;99.90
23156;DHT22;11746;50.876;4.246;2023-09-30T09:22:49;16.30;99.90
23156;DHT22;11746;50.876;4.246;2023-09-30T09:25:22;16.40;99.90
23156;DHT22;11746;50.876;4.246;2023-09-30T09:27:49;16.40;99.90
23156;DHT22;11746;50.876;4.246;2023-09-30T09:30:25;16.50;99.90
23156;DHT22;11746;50.876;4.246;2023-09-30T09:32:52;16.50;99.90
23156;DHT22;11746;50.876;4.246;2023-09-30T09:35:22;16.60;99.90
23156;DHT22;11746;50.876;4.246;2023-09-30T09:38:07;16.60;99.90
23156;DHT22;11746;50.876;4.246;2023-09-30T09:40:35;16.70;99.90
23156;DHT22;11746;50.876;4.246;2023-09-30T09:43:02;16.80;99.90
23156;DHT22;11746;50.876;4.246;2023-09-30T09:45:33;16.90;99.90
23156;DHT22;11746;50.876;4.246;2023-09-30T09:47:59;17.10;99.90
23156;DHT22;11746;50.876;4.246;2023-09-30T09:50:25;17.20;99.90
23156;DHT22;11746;50.876;4.246;2023-09-30T09:52:54;17.40;99.90
23156;DHT22;11746;50.876;4.246;2023-09-30T09:55:29;17.40;99.90
23156;DHT22;11746;50.876;4.246;2023-09-30T09:57:56;17.50;99.90
23156;DHT22;11746;50.876;4.246;2023-09-30T10:00:25;17.60;99.90
23156;DHT22;11746;50.876;4.246;2023-09-30T10:02:54;17.50;99.90
23156;DHT22;11746;50.876;4.246;2023-09-30T10:05:20;17.40;99.90
23156;DHT22;11746;50.876;4.246;2023-09-30T10:08:03;17.20;99.90
23156;DHT22;11746;50.876;4.246;2023-09-30T10:10:31;17.10;99.90
23156;DHT22;11746;50.876;4.246;2023-09-30T10:13:00;17.10;99.90
23156;DHT22;11746;50.876;4.246;2023-09-30T10:18:07;17.10;99.90
23156;DHT22;11746;50.876;4.246;2023-09-30T10:20:34;17.20;99.90
23156;DHT22;11746;50.876;4.246;2023-09-30T10:23:29;17.30;99.90
23156;DHT22;11746;50.876;4.246;2023-09-30T10:28:46;17.50;99.90
23156;DHT22;11746;50.876;4.246;2023-09-30T10:31:22;17.70;99.90
23156;DHT22;11746;50.876;4.246;2023-09-30T10:36:30;18.20;99.90
23156;DHT22;11746;50.876;4.246;2023-09-30T10:38:56;18.30;99.90
23156;DHT22;11746;50.876;4.246;2023-09-30T10:49:42;18.50;99.90
23156;DHT22;11746;50.876;4.246;2023-09-30T10:52:10;18.60;99.90
23156;DHT22;11746;50.876;4.246;2023-09-30T10:54:36;18.70;99.90
23156;DHT22;11746;50.876;4.246;2023-09-30T10:57:01;18.50;99.90
23156;DHT22;11746;50.876;4.246;2023-09-30T10:59:29;18.70;99.90
23156;DHT22;11746;50.876;4.246;2023-09-30T11:02:00;18.70;99.90
23156;DHT22;11746;50.876;4.246;2023-09-30T11:04:28;18.80;99.90
23156;DHT22;11746;50.876;4.246;2023-09-30T11:06:59;19.00;99.90
23156;DHT22;11746;50.876;4.246;2023-09-30T11:09:28;19.10;99.90
23156;DHT22;11746;50.876;4.246;2023-09-30T11:11:54;19.00;99.90
23156;DHT22;11746;50.876;4.246;2023-09-30T11:14:24;19.00;99.90
23156;DHT22;11746;50.876;4.246;2023-09-30T11:16:54;19.20;99.90
23156;DHT22;11746;50.876;4.246;2023-09-30T11:19:21;18.90;99.90
23156;DHT22;11746;50.876;4.246;2023-09-30T11:21:54;18.80;99.90
23156;DHT22;11746;50.876;4.246;2023-09-30T11:24:21;18.90;99.90
23156;DHT22;11746;50.876;4.246;2023-09-30T11:26:53;19.10;99.90
23156;DHT22;11746;50.876;4.246;2023-09-30T11:29:21;19.10;99.90
23156;DHT22;11746;50.876;4.246;2023-09-30T11:31:48;19.00;99.90
23156;DHT22;11746;50.876;4.246;2023-09-30T11:34:18;19.20;99.90
23156;DHT22;11746;50.876;4.246;2023-09-30T11:36:54;19.00;99.90
23156;DHT22;11746;50.876;4.246;2023-09-30T11:39:30;19.10;99.90
23156;DHT22;11746;50.876;4.246;2023-09-30T11:41:56;19.30;99.90
23156;DHT22;11746;50.876;4.246;2023-09-30T11:44:25;19.20;99.90
23156;DHT22;11746;50.876;4.246;2023-09-30T11:46:59;19.30;99.90
23156;DHT22;11746;50.876;4.246;2023-09-30T11:51:56;19.40;99.90
23156;DHT22;11746;50.876;4.246;2023-09-30T11:54:28;19.20;99.90
23156;DHT22;11746;50.876;4.246;2023-09-30T11:56:54;19.00;99.90
23156;DHT22;11746;50.876;4.246;2023-09-30T11:59:20;19.10;99.90
23156;DHT22;11746;50.876;4.246;2023-09-30T12:01:48;19.70;99.90
23156;DHT22;11746;50.876;4.246;2023-09-30T12:04:22;20.00;99.90
23156;DHT22;11746;50.876;4.246;2023-09-30T12:06:48;20.20;99.90
23156;DHT22;11746;50.876;4.246;2023-09-30T12:09:14;20.30;99.90
23156;DHT22;11746;50.876;4.246;2023-09-30T12:11:48;20.50;99.90
23156;DHT22;11746;50.876;4.246;2023-09-30T12:14:14;20.60;99.90
23156;DHT22;11746;50.876;4.246;2023-09-30T12:16:43;20.80;99.90
23156;DHT22;11746;50.876;4.246;2023-09-30T12:19:13;20.80;99.90
23156;DHT22;11746;50.876;4.246;2023-09-30T12:21:43;20.60;99.90
23156;DHT22;11746;50.876;4.246;2023-09-30T12:24:12;20.50;99.90
23156;DHT22;11746;50.876;4.246;2023-09-30T12:26:44;20.70;99.90
23156;DHT22;11746;50.876;4.246;2023-09-30T12:29:17;21.30;99.90
23156;DHT22;11746;50.876;4.246;2023-09-30T12:31:47;21.40;99.90
23156;DHT22;11746;50.876;4.246;2023-09-30T12:34:15;21.50;99.90
23156;DHT22;11746;50.876;4.246;2023-09-30T12:36:41;21.60;99.90
23156;DHT22;11746;50.876;4.246;2023-09-30T12:39:08;21.40;99.90
23156;DHT22;11746;50.876;4.246;2023-09-30T12:41:43;21.30;99.90
23156;DHT22;11746;50.876;4.246;2023-09-30T12:44:11;21.80;99.90
23156;DHT22;11746;50.876;4.246;2023-09-30T12:46:37;22.00;99.90
23156;DHT22;11746;50.876;4.246;2023-09-30T12:49:08;22.10;99.90
23156;DHT22;11746;50.876;4.246;2023-09-30T12:51:35;21.70;99.90
23156;DHT22;11746;50.876;4.246;2023-09-30T12:54:01;21.80;99.90
23156;DHT22;11746;50.876;4.246;2023-09-30T12:56:29;21.60;99.90
23156;DHT22;11746;50.876;4.246;2023-09-30T12:58:56;21.50;99.90
23156;DHT22;11746;50.876;4.246;2023-09-30T13:01:24;21.50;99.90
23156;DHT22;11746;50.876;4.246;2023-09-30T13:03:50;21.60;99.90
23156;DHT22;11746;50.876;4.246;2023-09-30T13:06:16;21.90;99.90
23156;DHT22;11746;50.876;4.246;2023-09-30T13:08:42;22.30;99.90
23156;DHT22;11746;50.876;4.246;2023-09-30T13:11:08;22.20;99.90
23156;DHT22;11746;50.876;4.246;2023-09-30T13:13:41;22.10;99.90
23156;DHT22;11746;50.876;4.246;2023-09-30T13:16:10;22.20;99.90
23156;DHT22;11746;50.876;4.246;2023-09-30T13:18:36;22.20;99.90
23156;DHT22;11746;50.876;4.246;2023-09-30T13:21:04;21.90;99.90
23156;DHT22;11746;50.876;4.246;2023-09-30T13:23:31;21.70;99.90
23156;DHT22;11746;50.876;4.246;2023-09-30T13:25:59;21.70;99.90
23156;DHT22;11746;50.876;4.246;2023-09-30T13:28:26;21.70;99.90
23156;DHT22;11746;50.876;4.246;2023-09-30T13:30:53;21.50;99.90
23156;DHT22;11746;50.876;4.246;2023-09-30T13:33:19;21.50;99.90
23156;DHT22;11746;50.876;4.246;2023-09-30T13:35:46;21.50;99.90
23156;DHT22;11746;50.876;4.246;2023-09-30T13:38:12;21.70;99.90
23156;DHT22;11746;50.876;4.246;2023-09-30T13:40:38;21.60;99.90
23156;DHT22;11746;50.876;4.246;2023-09-30T13:43:05;21.20;99.90
23156;DHT22;11746;50.876;4.246;2023-09-30T13:45:33;21.20;99.90
23156;DHT22;11746;50.876;4.246;2023-09-30T13:48:02;21.80;99.90
23156;DHT22;11746;50.876;4.246;2023-09-30T13:50:30;22.60;99.90
23156;DHT22;11746;50.876;4.246;2023-09-30T13:52:58;23.10;99.90
23156;DHT22;11746;50.876;4.246;2023-09-30T13:55:28;23.50;99.90
23156;DHT22;11746;50.876;4.246;2023-09-30T13:57:54;24.50;99.90
23156;DHT22;11746;50.876;4.246;2023-09-30T14:00:19;25.40;99.90
23156;DHT22;11746;50.876;4.246;2023-09-30T14:02:49;25.50;99.90
23156;DHT22;11746;50.876;4.246;2023-09-30T14:05:19;25.40;99.90
23156;DHT22;11746;50.876;4.246;2023-09-30T14:07:45;25.30;99.90
23156;DHT22;11746;50.876;4.246;2023-09-30T14:10:13;25.80;99.90
23156;DHT22;11746;50.876;4.246;2023-09-30T14:12:39;26.70;99.90
23156;DHT22;11746;50.876;4.246;2023-09-30T14:15:05;26.50;99.50
23156;DHT22;11746;50.876;4.246;2023-09-30T14:17:33;26.80;98.10
23156;DHT22;11746;50.876;4.246;2023-09-30T14:20:00;26.90;97.20
23156;DHT22;11746;50.876;4.246;2023-09-30T14:22:26;26.70;97.70
23156;DHT22;11746;50.876;4.246;2023-09-30T14:24:55;26.20;98.40
23156;DHT22;11746;50.876;4.246;2023-09-30T14:27:21;25.60;99.60
23156;DHT22;11746;50.876;4.246;2023-09-30T14:29:47;24.60;99.90
23156;DHT22;11746;50.876;4.246;2023-09-30T14:32:14;23.70;99.90
23156;DHT22;11746;50.876;4.246;2023-09-30T14:34:40;23.80;99.90
23156;DHT22;11746;50.876;4.246;2023-09-30T14:37:08;24.20;99.90
23156;DHT22;11746;50.876;4.246;2023-09-30T14:39:36;24.40;99.90
23156;DHT22;11746;50.876;4.246;2023-09-30T14:42:04;25.00;98.90
23156;DHT22;11746;50.876;4.246;2023-09-30T14:44:30;25.70;97.80
23156;DHT22;11746;50.876;4.246;2023-09-30T14:46:55;25.90;97.30
23156;DHT22;11746;50.876;4.246;2023-09-30T14:49:23;26.50;96.70
23156;DHT22;11746;50.876;4.246;2023-09-30T14:51:50;27.20;97.00
23156;DHT22;11746;50.876;4.246;2023-09-30T14:54:15;26.60;95.60
23156;DHT22;11746;50.876;4.246;2023-09-30T14:56:43;26.00;96.10
23156;DHT22;11746;50.876;4.246;2023-09-30T14:59:09;25.70;96.90
23156;DHT22;11746;50.876;4.246;2023-09-30T15:01:37;24.90;98.00
23156;DHT22;11746;50.876;4.246;2023-09-30T15:04:03;24.40;99.90
23156;DHT22;11746;50.876;4.246;2023-09-30T15:06:31;24.40;99.90
23156;DHT22;11746;50.876;4.246;2023-09-30T15:08:57;24.80;99.60
23156;DHT22;11746;50.876;4.246;2023-09-30T15:11:23;25.30;99.20
23156;DHT22;11746;50.876;4.246;2023-09-30T15:13:49;25.90;97.30
23156;DHT22;11746;50.876;4.246;2023-09-30T15:16:20;25.70;97.10
23156;DHT22;11746;50.876;4.246;2023-09-30T15:18:50;25.30;98.80
23156;DHT22;11746;50.876;4.246;2023-09-30T15:21:17;24.80;99.80
23156;DHT22;11746;50.876;4.246;2023-09-30T15:23:43;24.80;99.90
23156;DHT22;11746;50.876;4.246;2023-09-30T15:26:09;24.40;99.90
23156;DHT22;11746;50.876;4.246;2023-09-30T15:28:36;24.30;99.90
23156;DHT22;11746;50.876;4.246;2023-09-30T15:31:03;24.00;99.90
23156;DHT22;11746;50.876;4.246;2023-09-30T15:33:29;23.50;99.90
23156;DHT22;11746;50.876;4.246;2023-09-30T15:35:55;23.30;99.90
23156;DHT22;11746;50.876;4.246;2023-09-30T15:38:21;23.10;99.90
23156;DHT22;11746;50.876;4.246;2023-09-30T15:40:57;23.40;99.90
23156;DHT22;11746;50.876;4.246;2023-09-30T15:43:30;24.00;99.90
23156;DHT22;11746;50.876;4.246;2023-09-30T15:45:55;24.40;99.90
23156;DHT22;11746;50.876;4.246;2023-09-30T15:48:21;24.20;99.90
23156;DHT22;11746;50.876;4.246;2023-09-30T15:50:50;23.80;99.90
23156;DHT22;11746;50.876;4.246;2023-09-30T15:53:16;23.80;99.90